Decoded Metar for LFSI (ST.-DIZIER in FRANCE) (IATA:N/A) | Meteo·Mobile Aviation Weather
aviador You're here:

LFSI Decoded Metar

ST.-DIZIER in FRANCE
Report Time2019-09-21 10:00:00
UTC Time2019-09-21 10:07:45
Flight Rules vfr VFR
Wind150° at 09 kt
W.Decomp.*RWY 11: 7.0 kt HW 5.7 kt RCW
Visibility9999 m
Phenomena:N/A
Clouds:N/A
Expected CloudBase > 6,400 ft AGL from Temp-Dew spread
CeilingNone
Temp25°C (ISA +11)
Dew Point09°C (36% RH)
AAT21.5°C
QNH1016 hPa
Density Alt1,778 ft
Elevation459 ft
Report Wrong Elevation
Raw Report
METAR LFSI 211000Z AUTO 15009KT 110V180 CAVOK 25/09 Q1016=

Extra information for LFSI:More info

Metar Taf Metar & Taf Last 4 Metars F.Rules Stats Wind Profile Meteogram Temp Stats Airport Information Weather charts Add Link Nearby VenuesMetar ALERT Operation Metar Decoded Social comments